Pickleville, Utah
Current Conditions -  °F | °C
As of 12:51 PM on Wednesday 28 Jan 2015 (Local Time) from KLGU Reporting Station
Overcast Overcast  
Wind Chill:   Ceiling: 3200
Heat Index:   Visibility: 7mi
Dew Point:   Wind: 0mph
Humidity: 85%   Direction: NA
Pressure: 30.3"   Gusts: NA
Location:  41.9408°N, 111.433°W
Report Text: KLGU 281951Z AUTO 00000KT 7SM OVC032 06/03 A3030 RMK AO2 SLP263 T00560033
Loading
Personal Weather Stations






























Interactive Weather Map New forecast layout! Learn more

10-Day Weather Forecast

Advertisements
Track Severe Weather on mobile